Etusivu
METAR-TAF:

METAR-TAF

Lentoasemat :

Pointe-à-Pitre, Guadeloupe

Leveyspiiri: 16-16N, Pituuspiiri: 061-31W, korkeus merenpinnasta: 11 m

Tämänhetkinen sää

Tämä raportti tehtiin 33 minuuttia sitten, kello 10.30 UTC
Tuuli 6 kn idästä/koillisesta
Lämpötila 27°C
Kosteus 79%
Ilmanpaine 1014 hPa
Näkyvyys 10 km tai enemmän
ei pilviä alle 1500 m:ssä eikä cumulonimbus-pilviä

METAR: TFFR 211030Z AUTO 07006KT CAVOK 27/23 Q1014 NOSIG

Aika: 07:03 (11:03 UTC)

Sääennuste

Tämä raportti tehtiin 6 tuntia ja 3 minuuttia sitten, kello 05.00 UTC
Ennuste voimassa 21. päivästä klo 06 UTC - 22. päivään klo 06 UTC
Tuuli 12 kn idästä/kaakosta
Näkyvyys 10 km tai enemmän
Hajanaisia pilviä 3500 ft:n korkeudessa
Todennäköisyys 30% :
Ajoittain
21. päivästä klo 15 UTC - 21. päivään klo 18 UTC
Näkyvyys: 4000 m
Hajonneita pilviä 2000 ft:n korkeudessa, Kasvava cumulus-pilvi.
vesikuuroja,

TAF: TFFR 210500Z 2106/2206 12012KT 9999 SCT035 PROB30 TEMPO 2115/2118 4000 SHRA BKN020TCU

Säähavainnot ja -ennusteet yli 4000 lentoasemalta (METAR- ja TAF-raportit).

Käytössä olevat sääasemat on merkitty karttaan keltaisilla ja punaisilla pisteillä.

Aseta hiiri pisteen päälle nähdäksesi sääaseman nimen.

Klikkaa sitten nähdäksesi säähavainnot ja -ennusteet.

Kartan vaihtaminen: klikkaa mustalla rastilla varustettuja vihreitä pisteitä, niin voit zoomata sisään; viivalla varustettua vihreää pistettä, niin voit zoomata ulos tai vihreitä nuolia, niin pääset viereisille kartoille.


METAR-TAF: